LPPR Airport Information

Runway Information
Runway 17 Length 11417 ft width 148 ft
Elevation 151 ft Threshold 984 ft Heading 169
Runway 35 Length 11417 ft Width 148 ft
Elevation 226 ft Threshold 492 ft Heading 349
Airport Frequencies
Type APP Name APP Frequency 121.1 MHZ
Type ATIS Name ATIS Frequency 124.3 MHZ
Type TWR Name TWR Frequency 118 MHZ
Airport Navaids
Type NDB Name Porto Frequency 367 KHZ
Type NDB Name Porto Frequency 327 KHZ
Type VOR-DME Name Porto Frequency 114100 KHZ
Airport Weather Information & NOTAM
ADDS - METARS form results

(2052 UTC 22 February 2018)
 
METAR text: LPPR 222030Z VRB02KT CAVOK 07/05 Q1008
Conditions at: LPPR (PORTO/PEDRAS RUB, PT) observed 2030 UTC 22 February 2018
Temperature: 7.0°C (45°F)
Dewpoint: 5.0°C (41°F) [RH = 87%]
Pressure (altimeter): 29.76 inches Hg (1008.0 mb)
Winds: variable direction winds at 2 MPH (2 knots; 1.0 m/s)
Visibility: 6 or more miles (10+ km)
Ceiling: ceiling and visibility are OK
Clouds: unknown
Weather: no significant weather observed at this time

METAR text: LPPR 222000Z 34003KT CAVOK 08/06 Q1009
Conditions at: LPPR (PORTO/PEDRAS RUB, PT) observed 2000 UTC 22 February 2018
Temperature: 8.0°C (46°F)
Dewpoint: 6.0°C (43°F) [RH = 87%]
Pressure (altimeter): 29.79 inches Hg (1009.0 mb)
Winds: from the NNW (340 degrees) at 3 MPH (3 knots; 1.6 m/s)
Visibility: 6 or more miles (10+ km)
Ceiling: ceiling and visibility are OK
Clouds: unknown
Weather: no significant weather observed at this time